sensor_id;sensor_type;location;lat;lon;timestamp;P1;durP1;ratioP1;P2;durP2;ratioP2
20365;SDS011;10341;49.894;8.822;2023-04-25T00:05:15;6.43;;;4.03;;
20365;SDS011;10341;49.894;8.822;2023-04-25T00:10:35;7.50;;;4.32;;
20365;SDS011;10341;49.894;8.822;2023-04-25T00:15:54;5.68;;;3.78;;
20365;SDS011;10341;49.894;8.822;2023-04-25T00:21:15;5.82;;;3.80;;
20365;SDS011;10341;49.894;8.822;2023-04-25T00:26:36;6.13;;;3.97;;
20365;SDS011;10341;49.894;8.822;2023-04-25T00:31:56;5.75;;;3.60;;
20365;SDS011;10341;49.894;8.822;2023-04-25T00:37:16;5.60;;;3.78;;
20365;SDS011;10341;49.894;8.822;2023-04-25T00:42:35;6.03;;;3.67;;
20365;SDS011;10341;49.894;8.822;2023-04-25T00:47:55;6.38;;;4.15;;
20365;SDS011;10341;49.894;8.822;2023-04-25T00:53:15;5.30;;;3.88;;
20365;SDS011;10341;49.894;8.822;2023-04-25T00:58:35;7.35;;;4.30;;
20365;SDS011;10341;49.894;8.822;2023-04-25T01:03:55;7.25;;;4.78;;
20365;SDS011;10341;49.894;8.822;2023-04-25T01:09:16;7.18;;;4.57;;
20365;SDS011;10341;49.894;8.822;2023-04-25T01:14:37;6.55;;;4.40;;
20365;SDS011;10341;49.894;8.822;2023-04-25T01:25:17;9.70;;;4.72;;
20365;SDS011;10341;49.894;8.822;2023-04-25T01:30:37;7.68;;;5.30;;
20365;SDS011;10341;49.894;8.822;2023-04-25T01:35:57;9.60;;;5.63;;
20365;SDS011;10341;49.894;8.822;2023-04-25T01:41:17;8.75;;;5.45;;
20365;SDS011;10341;49.894;8.822;2023-04-25T01:46:37;9.23;;;5.55;;
20365;SDS011;10341;49.894;8.822;2023-04-25T01:51:57;9.75;;;5.60;;
20365;SDS011;10341;49.894;8.822;2023-04-25T01:57:16;7.53;;;4.07;;
20365;SDS011;10341;49.894;8.822;2023-04-25T02:02:37;9.15;;;5.85;;
20365;SDS011;10341;49.894;8.822;2023-04-25T02:07:58;10.15;;;6.45;;
20365;SDS011;10341;49.894;8.822;2023-04-25T02:13:19;11.32;;;5.80;;
20365;SDS011;10341;49.894;8.822;2023-04-25T02:18:55;7.97;;;5.57;;
20365;SDS011;10341;49.894;8.822;2023-04-25T02:24:14;11.40;;;5.90;;
20365;SDS011;10341;49.894;8.822;2023-04-25T02:29:33;8.00;;;5.38;;
20365;SDS011;10341;49.894;8.822;2023-04-25T02:34:53;10.02;;;6.25;;
20365;SDS011;10341;49.894;8.822;2023-04-25T02:40:12;11.45;;;6.53;;
20365;SDS011;10341;49.894;8.822;2023-04-25T02:45:32;8.95;;;5.88;;
20365;SDS011;10341;49.894;8.822;2023-04-25T02:50:52;11.57;;;6.90;;
20365;SDS011;10341;49.894;8.822;2023-04-25T02:56:11;11.00;;;6.43;;
20365;SDS011;10341;49.894;8.822;2023-04-25T03:01:31;9.25;;;6.55;;
20365;SDS011;10341;49.894;8.822;2023-04-25T03:06:51;13.40;;;7.13;;
20365;SDS011;10341;49.894;8.822;2023-04-25T03:12:13;10.27;;;6.80;;
20365;SDS011;10341;49.894;8.822;2023-04-25T03:17:32;10.80;;;6.93;;
20365;SDS011;10341;49.894;8.822;2023-04-25T03:22:52;9.48;;;6.80;;
20365;SDS011;10341;49.894;8.822;2023-04-25T03:28:11;10.88;;;6.95;;
20365;SDS011;10341;49.894;8.822;2023-04-25T03:33:31;11.23;;;6.85;;
20365;SDS011;10341;49.894;8.822;2023-04-25T03:38:50;11.77;;;7.13;;
20365;SDS011;10341;49.894;8.822;2023-04-25T03:44:12;14.07;;;7.45;;
20365;SDS011;10341;49.894;8.822;2023-04-25T03:49:34;11.05;;;7.05;;
20365;SDS011;10341;49.894;8.822;2023-04-25T03:54:56;12.02;;;7.10;;
20365;SDS011;10341;49.894;8.822;2023-04-25T04:00:17;13.38;;;6.68;;
20365;SDS011;10341;49.894;8.822;2023-04-25T04:05:37;14.25;;;8.20;;
20365;SDS011;10341;49.894;8.822;2023-04-25T04:10:59;14.55;;;7.85;;
20365;SDS011;10341;49.894;8.822;2023-04-25T04:16:19;12.90;;;7.68;;
20365;SDS011;10341;49.894;8.822;2023-04-25T04:21:40;13.20;;;7.70;;
20365;SDS011;10341;49.894;8.822;2023-04-25T04:26:59;13.35;;;7.50;;
20365;SDS011;10341;49.894;8.822;2023-04-25T04:32:54;15.60;;;8.02;;
20365;SDS011;10341;49.894;8.822;2023-04-25T04:38:15;16.02;;;8.02;;
20365;SDS011;10341;49.894;8.822;2023-04-25T04:43:34;15.93;;;9.13;;
20365;SDS011;10341;49.894;8.822;2023-04-25T04:49:15;14.77;;;7.63;;
20365;SDS011;10341;49.894;8.822;2023-04-25T04:54:44;17.23;;;7.43;;
20365;SDS011;10341;49.894;8.822;2023-04-25T05:00:29;13.80;;;7.25;;
20365;SDS011;10341;49.894;8.822;2023-04-25T05:06:20;15.68;;;8.63;;
20365;SDS011;10341;49.894;8.822;2023-04-25T05:11:58;11.55;;;6.50;;
20365;SDS011;10341;49.894;8.822;2023-04-25T05:17:43;14.82;;;7.53;;
20365;SDS011;10341;49.894;8.822;2023-04-25T05:23:26;13.15;;;7.57;;
20365;SDS011;10341;49.894;8.822;2023-04-25T05:28:58;13.65;;;6.95;;
20365;SDS011;10341;49.894;8.822;2023-04-25T05:34:29;13.63;;;6.28;;
20365;SDS011;10341;49.894;8.822;2023-04-25T05:39:52;11.35;;;7.05;;
20365;SDS011;10341;49.894;8.822;2023-04-25T05:45:38;15.57;;;6.32;;
20365;SDS011;10341;49.894;8.822;2023-04-25T05:51:20;13.07;;;6.35;;
20365;SDS011;10341;49.894;8.822;2023-04-25T05:56:52;13.13;;;6.95;;
20365;SDS011;10341;49.894;8.822;2023-04-25T06:02:11;19.55;;;7.50;;
20365;SDS011;10341;49.894;8.822;2023-04-25T06:12:50;14.15;;;5.82;;
20365;SDS011;10341;49.894;8.822;2023-04-25T06:18:12;12.10;;;6.15;;
20365;SDS011;10341;49.894;8.822;2023-04-25T06:23:32;12.60;;;6.32;;
20365;SDS011;10341;49.894;8.822;2023-04-25T06:28:55;9.38;;;5.15;;
20365;SDS011;10341;49.894;8.822;2023-04-25T06:34:15;16.13;;;6.22;;
20365;SDS011;10341;49.894;8.822;2023-04-25T06:39:35;10.45;;;5.10;;
20365;SDS011;10341;49.894;8.822;2023-04-25T06:44:54;11.15;;;4.93;;
20365;SDS011;10341;49.894;8.822;2023-04-25T06:50:14;10.90;;;4.15;;
20365;SDS011;10341;49.894;8.822;2023-04-25T07:01:11;9.23;;;4.80;;
20365;SDS011;10341;49.894;8.822;2023-04-25T07:11:50;8.20;;;4.25;;
20365;SDS011;10341;49.894;8.822;2023-04-25T07:17:10;13.27;;;4.40;;
20365;SDS011;10341;49.894;8.822;2023-04-25T07:22:30;10.55;;;4.22;;
20365;SDS011;10341;49.894;8.822;2023-04-25T07:27:49;8.23;;;3.47;;
20365;SDS011;10341;49.894;8.822;2023-04-25T07:33:11;8.85;;;3.88;;
20365;SDS011;10341;49.894;8.822;2023-04-25T07:38:30;9.93;;;4.93;;
20365;SDS011;10341;49.894;8.822;2023-04-25T07:43:50;14.05;;;4.63;;
20365;SDS011;10341;49.894;8.822;2023-04-25T07:49:10;8.82;;;4.32;;
20365;SDS011;10341;49.894;8.822;2023-04-25T07:54:29;10.18;;;4.40;;
20365;SDS011;10341;49.894;8.822;2023-04-25T07:59:55;5.85;;;3.58;;
20365;SDS011;10341;49.894;8.822;2023-04-25T08:05:15;11.45;;;5.22;;
20365;SDS011;10341;49.894;8.822;2023-04-25T08:10:38;8.27;;;3.70;;
20365;SDS011;10341;49.894;8.822;2023-04-25T08:15:58;7.15;;;3.97;;
20365;SDS011;10341;49.894;8.822;2023-04-25T08:21:17;6.27;;;3.27;;
20365;SDS011;10341;49.894;8.822;2023-04-25T08:26:37;5.70;;;2.90;;
20365;SDS011;10341;49.894;8.822;2023-04-25T08:31:58;6.45;;;2.85;;
20365;SDS011;10341;49.894;8.822;2023-04-25T08:37:18;6.55;;;3.40;;
20365;SDS011;10341;49.894;8.822;2023-04-25T08:43:01;5.88;;;2.67;;
20365;SDS011;10341;49.894;8.822;2023-04-25T08:48:22;8.57;;;2.70;;
20365;SDS011;10341;49.894;8.822;2023-04-25T08:53:45;5.32;;;2.90;;
20365;SDS011;10341;49.894;8.822;2023-04-25T08:59:10;4.43;;;2.65;;
20365;SDS011;10341;49.894;8.822;2023-04-25T09:04:31;4.40;;;2.35;;
20365;SDS011;10341;49.894;8.822;2023-04-25T09:09:52;5.75;;;2.28;;
20365;SDS011;10341;49.894;8.822;2023-04-25T09:15:14;4.55;;;2.40;;
20365;SDS011;10341;49.894;8.822;2023-04-25T09:20:45;3.47;;;2.13;;
20365;SDS011;10341;49.894;8.822;2023-04-25T09:26:05;4.35;;;2.25;;
20365;SDS011;10341;49.894;8.822;2023-04-25T09:31:26;5.07;;;2.25;;
20365;SDS011;10341;49.894;8.822;2023-04-25T09:36:50;4.78;;;2.30;;
20365;SDS011;10341;49.894;8.822;2023-04-25T09:42:44;3.92;;;1.80;;
20365;SDS011;10341;49.894;8.822;2023-04-25T09:48:04;3.20;;;2.35;;
20365;SDS011;10341;49.894;8.822;2023-04-25T09:53:27;5.78;;;2.45;;
20365;SDS011;10341;49.894;8.822;2023-04-25T09:59:01;4.15;;;2.38;;
20365;SDS011;10341;49.894;8.822;2023-04-25T10:04:23;4.03;;;2.30;;
20365;SDS011;10341;49.894;8.822;2023-04-25T10:09:54;3.45;;;2.50;;
20365;SDS011;10341;49.894;8.822;2023-04-25T10:15:21;3.58;;;2.45;;
20365;SDS011;10341;49.894;8.822;2023-04-25T10:20:41;6.03;;;2.40;;
20365;SDS011;10341;49.894;8.822;2023-04-25T10:26:00;3.97;;;2.45;;
20365;SDS011;10341;49.894;8.822;2023-04-25T10:31:20;4.43;;;3.10;;
20365;SDS011;10341;49.894;8.822;2023-04-25T10:36:39;5.63;;;2.50;;
20365;SDS011;10341;49.894;8.822;2023-04-25T10:41:59;3.22;;;2.30;;
20365;SDS011;10341;49.894;8.822;2023-04-25T10:47:21;5.32;;;2.85;;
20365;SDS011;10341;49.894;8.822;2023-04-25T10:53:13;4.68;;;2.70;;
20365;SDS011;10341;49.894;8.822;2023-04-25T10:58:33;3.97;;;2.45;;
20365;SDS011;10341;49.894;8.822;2023-04-25T11:03:57;6.25;;;2.60;;
20365;SDS011;10341;49.894;8.822;2023-04-25T11:09:16;5.47;;;3.05;;
20365;SDS011;10341;49.894;8.822;2023-04-25T11:14:36;5.50;;;3.45;;
20365;SDS011;10341;49.894;8.822;2023-04-25T11:19:55;5.72;;;3.20;;
20365;SDS011;10341;49.894;8.822;2023-04-25T11:25:15;6.60;;;3.38;;
20365;SDS011;10341;49.894;8.822;2023-04-25T11:30:35;4.72;;;3.13;;
20365;SDS011;10341;49.894;8.822;2023-04-25T11:35:55;7.38;;;3.05;;
20365;SDS011;10341;49.894;8.822;2023-04-25T11:41:15;6.88;;;2.75;;
20365;SDS011;10341;49.894;8.822;2023-04-25T11:46:35;6.38;;;3.17;;
20365;SDS011;10341;49.894;8.822;2023-04-25T11:51:54;5.13;;;2.47;;
20365;SDS011;10341;49.894;8.822;2023-04-25T11:57:13;5.40;;;3.28;;
20365;SDS011;10341;49.894;8.822;2023-04-25T12:02:34;6.13;;;3.40;;
20365;SDS011;10341;49.894;8.822;2023-04-25T12:07:54;6.72;;;3.40;;
20365;SDS011;10341;49.894;8.822;2023-04-25T12:13:32;8.18;;;3.55;;
20365;SDS011;10341;49.894;8.822;2023-04-25T12:18:51;6.43;;;3.33;;
20365;SDS011;10341;49.894;8.822;2023-04-25T12:24:16;5.78;;;3.47;;
20365;SDS011;10341;49.894;8.822;2023-04-25T12:29:37;6.65;;;3.42;;
20365;SDS011;10341;49.894;8.822;2023-04-25T12:34:56;5.27;;;3.30;;
20365;SDS011;10341;49.894;8.822;2023-04-25T12:40:15;6.38;;;3.63;;
20365;SDS011;10341;49.894;8.822;2023-04-25T12:45:35;5.72;;;2.88;;
20365;SDS011;10341;49.894;8.822;2023-04-25T12:50:54;6.53;;;2.83;;
20365;SDS011;10341;49.894;8.822;2023-04-25T12:56:14;6.03;;;2.83;;
20365;SDS011;10341;49.894;8.822;2023-04-25T13:01:33;7.10;;;3.30;;
20365;SDS011;10341;49.894;8.822;2023-04-25T13:06:53;4.70;;;2.67;;
20365;SDS011;10341;49.894;8.822;2023-04-25T13:12:12;4.93;;;2.70;;
20365;SDS011;10341;49.894;8.822;2023-04-25T13:17:32;6.82;;;2.75;;
20365;SDS011;10341;49.894;8.822;2023-04-25T13:22:51;5.18;;;2.40;;
20365;SDS011;10341;49.894;8.822;2023-04-25T13:28:10;3.97;;;2.30;;
20365;SDS011;10341;49.894;8.822;2023-04-25T13:33:30;5.10;;;2.53;;
20365;SDS011;10341;49.894;8.822;2023-04-25T13:38:49;5.32;;;2.50;;
20365;SDS011;10341;49.894;8.822;2023-04-25T13:44:09;4.68;;;3.03;;
20365;SDS011;10341;49.894;8.822;2023-04-25T13:54:48;7.60;;;2.33;;
20365;SDS011;10341;49.894;8.822;2023-04-25T14:00:07;6.28;;;3.10;;
20365;SDS011;10341;49.894;8.822;2023-04-25T14:05:27;6.30;;;2.70;;
20365;SDS011;10341;49.894;8.822;2023-04-25T14:10:46;7.30;;;2.95;;
20365;SDS011;10341;49.894;8.822;2023-04-25T14:16:06;6.10;;;2.75;;
20365;SDS011;10341;49.894;8.822;2023-04-25T14:21:25;6.05;;;2.65;;
20365;SDS011;10341;49.894;8.822;2023-04-25T14:26:47;6.93;;;3.28;;
20365;SDS011;10341;49.894;8.822;2023-04-25T14:32:06;4.70;;;2.80;;
20365;SDS011;10341;49.894;8.822;2023-04-25T14:37:25;5.27;;;2.67;;
20365;SDS011;10341;49.894;8.822;2023-04-25T14:42:45;4.97;;;2.47;;
20365;SDS011;10341;49.894;8.822;2023-04-25T14:48:04;6.18;;;2.58;;
20365;SDS011;10341;49.894;8.822;2023-04-25T14:53:23;5.28;;;2.33;;
20365;SDS011;10341;49.894;8.822;2023-04-25T14:58:43;4.80;;;2.30;;
20365;SDS011;10341;49.894;8.822;2023-04-25T15:04:03;7.20;;;2.55;;
20365;SDS011;10341;49.894;8.822;2023-04-25T15:09:23;3.70;;;2.10;;
20365;SDS011;10341;49.894;8.822;2023-04-25T15:14:43;4.53;;;2.50;;
20365;SDS011;10341;49.894;8.822;2023-04-25T15:20:02;7.03;;;2.92;;
20365;SDS011;10341;49.894;8.822;2023-04-25T15:25:24;9.05;;;2.67;;
20365;SDS011;10341;49.894;8.822;2023-04-25T15:30:43;4.13;;;2.10;;
20365;SDS011;10341;49.894;8.822;2023-04-25T15:36:03;5.35;;;2.17;;
20365;SDS011;10341;49.894;8.822;2023-04-25T15:41:24;3.03;;;1.80;;
20365;SDS011;10341;49.894;8.822;2023-04-25T15:46:44;6.38;;;2.22;;
20365;SDS011;10341;49.894;8.822;2023-04-25T15:52:03;5.27;;;2.00;;
20365;SDS011;10341;49.894;8.822;2023-04-25T15:57:24;4.57;;;1.65;;
20365;SDS011;10341;49.894;8.822;2023-04-25T16:02:44;4.60;;;1.80;;
20365;SDS011;10341;49.894;8.822;2023-04-25T16:08:04;4.97;;;1.98;;
20365;SDS011;10341;49.894;8.822;2023-04-25T16:13:24;4.70;;;1.70;;
20365;SDS011;10341;49.894;8.822;2023-04-25T16:18:45;4.85;;;1.90;;
20365;SDS011;10341;49.894;8.822;2023-04-25T16:24:04;5.35;;;1.70;;
20365;SDS011;10341;49.894;8.822;2023-04-25T16:29:23;5.05;;;2.10;;
20365;SDS011;10341;49.894;8.822;2023-04-25T16:34:43;5.40;;;1.77;;
20365;SDS011;10341;49.894;8.822;2023-04-25T16:40:03;8.40;;;1.98;;
20365;SDS011;10341;49.894;8.822;2023-04-25T16:45:25;7.45;;;1.65;;
20365;SDS011;10341;49.894;8.822;2023-04-25T16:50:45;4.35;;;1.52;;
20365;SDS011;10341;49.894;8.822;2023-04-25T16:56:04;4.63;;;1.55;;
20365;SDS011;10341;49.894;8.822;2023-04-25T17:01:25;5.57;;;1.70;;
20365;SDS011;10341;49.894;8.822;2023-04-25T17:06:44;5.43;;;1.30;;
20365;SDS011;10341;49.894;8.822;2023-04-25T17:12:03;7.20;;;1.42;;
20365;SDS011;10341;49.894;8.822;2023-04-25T17:17:23;5.63;;;1.38;;
20365;SDS011;10341;49.894;8.822;2023-04-25T17:22:48;5.80;;;1.92;;
20365;SDS011;10341;49.894;8.822;2023-04-25T17:28:07;3.63;;;1.83;;
20365;SDS011;10341;49.894;8.822;2023-04-25T17:33:27;4.35;;;1.73;;
20365;SDS011;10341;49.894;8.822;2023-04-25T17:38:46;3.33;;;1.60;;
20365;SDS011;10341;49.894;8.822;2023-04-25T17:44:05;4.63;;;1.80;;
20365;SDS011;10341;49.894;8.822;2023-04-25T17:49:25;6.45;;;1.58;;
20365;SDS011;10341;49.894;8.822;2023-04-25T17:54:44;3.47;;;1.80;;
20365;SDS011;10341;49.894;8.822;2023-04-25T18:00:04;4.82;;;1.70;;
20365;SDS011;10341;49.894;8.822;2023-04-25T18:05:34;2.72;;;1.25;;
20365;SDS011;10341;49.894;8.822;2023-04-25T18:10:54;3.57;;;1.50;;
20365;SDS011;10341;49.894;8.822;2023-04-25T18:16:14;5.07;;;1.50;;
20365;SDS011;10341;49.894;8.822;2023-04-25T18:21:34;9.43;;;2.25;;
20365;SDS011;10341;49.894;8.822;2023-04-25T18:26:54;5.15;;;1.58;;
20365;SDS011;10341;49.894;8.822;2023-04-25T18:32:14;2.65;;;1.70;;
20365;SDS011;10341;49.894;8.822;2023-04-25T18:37:34;5.05;;;1.65;;
20365;SDS011;10341;49.894;8.822;2023-04-25T18:42:53;5.28;;;1.63;;
20365;SDS011;10341;49.894;8.822;2023-04-25T18:48:12;5.35;;;1.70;;
20365;SDS011;10341;49.894;8.822;2023-04-25T18:53:32;6.20;;;1.70;;
20365;SDS011;10341;49.894;8.822;2023-04-25T18:58:52;3.20;;;1.52;;
20365;SDS011;10341;49.894;8.822;2023-04-25T19:04:12;4.57;;;1.92;;
20365;SDS011;10341;49.894;8.822;2023-04-25T19:14:51;4.70;;;1.50;;
20365;SDS011;10341;49.894;8.822;2023-04-25T19:20:11;4.68;;;1.70;;
20365;SDS011;10341;49.894;8.822;2023-04-25T19:25:30;4.05;;;1.40;;
20365;SDS011;10341;49.894;8.822;2023-04-25T19:30:52;4.55;;;1.55;;
20365;SDS011;10341;49.894;8.822;2023-04-25T19:36:11;4.22;;;1.48;;
20365;SDS011;10341;49.894;8.822;2023-04-25T19:41:31;4.30;;;1.45;;
20365;SDS011;10341;49.894;8.822;2023-04-25T19:46:54;4.00;;;1.88;;
20365;SDS011;10341;49.894;8.822;2023-04-25T19:52:13;4.75;;;1.38;;
20365;SDS011;10341;49.894;8.822;2023-04-25T19:57:34;4.20;;;1.88;;
20365;SDS011;10341;49.894;8.822;2023-04-25T20:02:55;3.25;;;1.52;;
20365;SDS011;10341;49.894;8.822;2023-04-25T20:08:14;3.07;;;1.73;;
20365;SDS011;10341;49.894;8.822;2023-04-25T20:13:34;6.57;;;2.25;;
20365;SDS011;10341;49.894;8.822;2023-04-25T20:18:53;5.88;;;2.42;;
20365;SDS011;10341;49.894;8.822;2023-04-25T20:24:13;6.72;;;3.90;;
20365;SDS011;10341;49.894;8.822;2023-04-25T20:29:33;5.47;;;2.40;;
20365;SDS011;10341;49.894;8.822;2023-04-25T20:34:52;5.53;;;1.80;;
20365;SDS011;10341;49.894;8.822;2023-04-25T20:40:11;6.53;;;1.83;;
20365;SDS011;10341;49.894;8.822;2023-04-25T20:45:30;2.50;;;1.90;;
20365;SDS011;10341;49.894;8.822;2023-04-25T20:50:52;4.85;;;1.80;;
20365;SDS011;10341;49.894;8.822;2023-04-25T20:56:11;3.42;;;1.80;;
20365;SDS011;10341;49.894;8.822;2023-04-25T21:01:31;2.90;;;1.65;;
20365;SDS011;10341;49.894;8.822;2023-04-25T21:06:52;2.97;;;2.03;;
20365;SDS011;10341;49.894;8.822;2023-04-25T21:12:11;4.37;;;1.83;;
20365;SDS011;10341;49.894;8.822;2023-04-25T21:17:30;2.80;;;1.97;;
20365;SDS011;10341;49.894;8.822;2023-04-25T21:22:49;4.50;;;2.38;;
20365;SDS011;10341;49.894;8.822;2023-04-25T21:28:10;9.77;;;2.55;;
20365;SDS011;10341;49.894;8.822;2023-04-25T21:33:29;3.95;;;1.90;;
20365;SDS011;10341;49.894;8.822;2023-04-25T21:38:48;5.65;;;1.80;;
20365;SDS011;10341;49.894;8.822;2023-04-25T21:44:07;3.80;;;2.20;;
20365;SDS011;10341;49.894;8.822;2023-04-25T21:49:27;4.33;;;2.03;;
20365;SDS011;10341;49.894;8.822;2023-04-25T21:54:47;3.55;;;2.08;;
20365;SDS011;10341;49.894;8.822;2023-04-25T22:05:37;13.50;;;5.68;;
20365;SDS011;10341;49.894;8.822;2023-04-25T22:10:57;4.38;;;2.35;;
20365;SDS011;10341;49.894;8.822;2023-04-25T22:16:16;4.37;;;1.90;;
20365;SDS011;10341;49.894;8.822;2023-04-25T22:21:35;5.28;;;1.90;;
20365;SDS011;10341;49.894;8.822;2023-04-25T22:26:55;4.38;;;2.00;;
20365;SDS011;10341;49.894;8.822;2023-04-25T22:32:15;5.00;;;2.10;;
20365;SDS011;10341;49.894;8.822;2023-04-25T22:37:34;7.90;;;2.35;;
20365;SDS011;10341;49.894;8.822;2023-04-25T22:42:54;2.75;;;2.20;;
20365;SDS011;10341;49.894;8.822;2023-04-25T22:48:14;2.97;;;2.10;;
20365;SDS011;10341;49.894;8.822;2023-04-25T22:53:33;3.63;;;2.13;;
20365;SDS011;10341;49.894;8.822;2023-04-25T22:58:57;4.03;;;2.10;;
20365;SDS011;10341;49.894;8.822;2023-04-25T23:04:16;4.95;;;2.28;;
20365;SDS011;10341;49.894;8.822;2023-04-25T23:09:36;3.50;;;2.05;;
20365;SDS011;10341;49.894;8.822;2023-04-25T23:14:56;3.85;;;1.95;;
20365;SDS011;10341;49.894;8.822;2023-04-25T23:20:14;4.43;;;2.27;;
20365;SDS011;10341;49.894;8.822;2023-04-25T23:31:04;6.00;;;2.47;;
20365;SDS011;10341;49.894;8.822;2023-04-25T23:36:24;4.13;;;2.70;;
20365;SDS011;10341;49.894;8.822;2023-04-25T23:41:44;4.55;;;2.72;;
20365;SDS011;10341;49.894;8.822;2023-04-25T23:47:03;4.33;;;2.20;;
20365;SDS011;10341;49.894;8.822;2023-04-25T23:57:43;3.42;;;2.00;;
